Aviation Digital Data Service (ADDS)

Output produced by METARs form (0514 UTC 28 March 2015)
found at http://aviationweather.gov/adds/metars/
 
KLWB 272337Z 2800/2824 32008G16KT P6SM OVC040 
     TEMPO 2800/2804 P6SM -SHSN OVC035 
     FM280700 31007KT P6SM BKN030 
     FM281500 30010G20KT P6SM SCT035